sensor_id;sensor_type;location;lat;lon;timestamp;temperature;humidity
37460;DHT22;23318;50.966;5.284;2023-04-03T00:01:00;4.50;99.90
37460;DHT22;23318;50.966;5.284;2023-04-03T00:03:26;4.50;99.90
37460;DHT22;23318;50.966;5.284;2023-04-03T00:05:52;4.40;99.90
37460;DHT22;23318;50.966;5.284;2023-04-03T00:08:18;4.40;99.90
37460;DHT22;23318;50.966;5.284;2023-04-03T00:10:44;4.40;99.90
37460;DHT22;23318;50.966;5.284;2023-04-03T00:13:10;4.40;99.90
37460;DHT22;23318;50.966;5.284;2023-04-03T00:15:36;4.30;99.90
37460;DHT22;23318;50.966;5.284;2023-04-03T00:18:02;4.30;99.90
37460;DHT22;23318;50.966;5.284;2023-04-03T00:20:28;4.30;99.90
37460;DHT22;23318;50.966;5.284;2023-04-03T00:22:54;4.20;99.90
37460;DHT22;23318;50.966;5.284;2023-04-03T00:25:20;4.10;99.90
37460;DHT22;23318;50.966;5.284;2023-04-03T00:27:45;4.10;99.90
37460;DHT22;23318;50.966;5.284;2023-04-03T00:30:14;4.10;99.90
37460;DHT22;23318;50.966;5.284;2023-04-03T00:32:41;4.00;99.90
37460;DHT22;23318;50.966;5.284;2023-04-03T00:35:08;4.00;99.90
37460;DHT22;23318;50.966;5.284;2023-04-03T00:37:34;4.00;99.90
37460;DHT22;23318;50.966;5.284;2023-04-03T00:40:01;3.90;99.90
37460;DHT22;23318;50.966;5.284;2023-04-03T00:42:27;3.90;99.90
37460;DHT22;23318;50.966;5.284;2023-04-03T00:47:21;3.80;99.90
37460;DHT22;23318;50.966;5.284;2023-04-03T00:49:49;3.80;99.90
37460;DHT22;23318;50.966;5.284;2023-04-03T00:52:19;3.80;99.90
37460;DHT22;23318;50.966;5.284;2023-04-03T00:54:47;3.80;99.90
37460;DHT22;23318;50.966;5.284;2023-04-03T00:57:14;3.70;99.90
37460;DHT22;23318;50.966;5.284;2023-04-03T00:59:45;3.80;99.90
37460;DHT22;23318;50.966;5.284;2023-04-03T01:02:12;3.80;99.90
37460;DHT22;23318;50.966;5.284;2023-04-03T01:04:40;3.80;99.90
37460;DHT22;23318;50.966;5.284;2023-04-03T01:09:43;3.80;99.90
37460;DHT22;23318;50.966;5.284;2023-04-03T01:12:17;3.70;99.90
37460;DHT22;23318;50.966;5.284;2023-04-03T01:14:47;3.80;99.90
37460;DHT22;23318;50.966;5.284;2023-04-03T01:17:41;3.70;99.90
37460;DHT22;23318;50.966;5.284;2023-04-03T01:25:44;3.70;99.90
37460;DHT22;23318;50.966;5.284;2023-04-03T01:28:17;3.70;99.90
37460;DHT22;23318;50.966;5.284;2023-04-03T01:33:13;3.70;99.90
37460;DHT22;23318;50.966;5.284;2023-04-03T01:35:39;3.70;99.90
37460;DHT22;23318;50.966;5.284;2023-04-03T01:38:04;3.70;99.90
37460;DHT22;23318;50.966;5.284;2023-04-03T01:40:30;3.60;99.90
37460;DHT22;23318;50.966;5.284;2023-04-03T01:42:56;3.60;99.90
37460;DHT22;23318;50.966;5.284;2023-04-03T01:45:21;3.50;99.90
37460;DHT22;23318;50.966;5.284;2023-04-03T01:47:47;3.60;99.90
37460;DHT22;23318;50.966;5.284;2023-04-03T01:50:13;3.50;99.90
37460;DHT22;23318;50.966;5.284;2023-04-03T01:52:38;3.50;99.90
37460;DHT22;23318;50.966;5.284;2023-04-03T01:55:05;3.50;99.90
37460;DHT22;23318;50.966;5.284;2023-04-03T01:57:31;3.60;99.90
37460;DHT22;23318;50.966;5.284;2023-04-03T01:59:56;3.50;99.90
37460;DHT22;23318;50.966;5.284;2023-04-03T02:02:22;3.40;99.90
37460;DHT22;23318;50.966;5.284;2023-04-03T02:04:48;3.50;99.90
37460;DHT22;23318;50.966;5.284;2023-04-03T02:07:13;3.50;99.90
37460;DHT22;23318;50.966;5.284;2023-04-03T02:09:39;3.50;99.90
37460;DHT22;23318;50.966;5.284;2023-04-03T02:12:05;3.50;99.90
37460;DHT22;23318;50.966;5.284;2023-04-03T02:14:30;3.60;99.90
37460;DHT22;23318;50.966;5.284;2023-04-03T02:16:56;3.50;99.90
37460;DHT22;23318;50.966;5.284;2023-04-03T02:19:22;3.60;99.90
37460;DHT22;23318;50.966;5.284;2023-04-03T02:21:48;3.60;99.90
37460;DHT22;23318;50.966;5.284;2023-04-03T02:24:13;3.50;99.90
37460;DHT22;23318;50.966;5.284;2023-04-03T02:26:39;3.40;99.90
37460;DHT22;23318;50.966;5.284;2023-04-03T02:29:05;3.40;99.90
37460;DHT22;23318;50.966;5.284;2023-04-03T02:31:31;3.40;99.90
37460;DHT22;23318;50.966;5.284;2023-04-03T02:33:56;3.40;99.90
37460;DHT22;23318;50.966;5.284;2023-04-03T02:36:22;3.40;99.90
37460;DHT22;23318;50.966;5.284;2023-04-03T02:38:48;3.20;99.90
37460;DHT22;23318;50.966;5.284;2023-04-03T02:41:13;3.20;99.90
37460;DHT22;23318;50.966;5.284;2023-04-03T02:43:40;3.20;99.90
37460;DHT22;23318;50.966;5.284;2023-04-03T02:46:06;3.30;99.90
37460;DHT22;23318;50.966;5.284;2023-04-03T02:48:33;3.30;99.90
37460;DHT22;23318;50.966;5.284;2023-04-03T02:50:59;3.30;99.90
37460;DHT22;23318;50.966;5.284;2023-04-03T02:53:24;3.30;99.90
37460;DHT22;23318;50.966;5.284;2023-04-03T02:55:50;2.90;99.90
37460;DHT22;23318;50.966;5.284;2023-04-03T02:58:15;2.90;99.90
37460;DHT22;23318;50.966;5.284;2023-04-03T03:00:42;3.00;99.90
37460;DHT22;23318;50.966;5.284;2023-04-03T03:03:07;3.00;99.90
37460;DHT22;23318;50.966;5.284;2023-04-03T03:05:33;3.00;99.90
37460;DHT22;23318;50.966;5.284;2023-04-03T03:07:59;3.10;99.90
37460;DHT22;23318;50.966;5.284;2023-04-03T03:10:25;3.00;99.90
37460;DHT22;23318;50.966;5.284;2023-04-03T03:12:50;3.00;99.90
37460;DHT22;23318;50.966;5.284;2023-04-03T03:15:16;3.00;99.90
37460;DHT22;23318;50.966;5.284;2023-04-03T03:17:43;3.00;99.90
37460;DHT22;23318;50.966;5.284;2023-04-03T03:20:09;3.00;99.90
37460;DHT22;23318;50.966;5.284;2023-04-03T03:22:35;2.90;99.90
37460;DHT22;23318;50.966;5.284;2023-04-03T03:25:02;2.90;99.90
37460;DHT22;23318;50.966;5.284;2023-04-03T03:27:29;2.70;99.90
37460;DHT22;23318;50.966;5.284;2023-04-03T03:29:54;2.70;99.90
37460;DHT22;23318;50.966;5.284;2023-04-03T03:32:20;2.70;99.90
37460;DHT22;23318;50.966;5.284;2023-04-03T03:34:46;2.70;99.90
37460;DHT22;23318;50.966;5.284;2023-04-03T03:37:12;2.60;99.90
37460;DHT22;23318;50.966;5.284;2023-04-03T03:39:37;2.60;99.90
37460;DHT22;23318;50.966;5.284;2023-04-03T03:42:03;2.60;99.90
37460;DHT22;23318;50.966;5.284;2023-04-03T03:44:29;2.80;99.90
37460;DHT22;23318;50.966;5.284;2023-04-03T03:46:55;2.60;99.90
37460;DHT22;23318;50.966;5.284;2023-04-03T03:49:22;2.50;99.90
37460;DHT22;23318;50.966;5.284;2023-04-03T03:51:47;2.40;99.90
37460;DHT22;23318;50.966;5.284;2023-04-03T03:54:13;2.50;99.90
37460;DHT22;23318;50.966;5.284;2023-04-03T03:56:39;2.40;99.90
37460;DHT22;23318;50.966;5.284;2023-04-03T03:59:05;2.50;99.90
37460;DHT22;23318;50.966;5.284;2023-04-03T04:01:31;2.50;99.90
37460;DHT22;23318;50.966;5.284;2023-04-03T04:03:57;2.50;99.90
37460;DHT22;23318;50.966;5.284;2023-04-03T04:06:23;2.50;99.90
37460;DHT22;23318;50.966;5.284;2023-04-03T04:08:49;2.50;99.90
37460;DHT22;23318;50.966;5.284;2023-04-03T04:11:14;2.50;99.90
37460;DHT22;23318;50.966;5.284;2023-04-03T04:13:40;2.50;99.90
37460;DHT22;23318;50.966;5.284;2023-04-03T04:16:06;2.40;99.90
37460;DHT22;23318;50.966;5.284;2023-04-03T04:18:32;2.40;99.90
37460;DHT22;23318;50.966;5.284;2023-04-03T04:20:58;2.40;99.90
37460;DHT22;23318;50.966;5.284;2023-04-03T04:23:24;2.40;99.90
37460;DHT22;23318;50.966;5.284;2023-04-03T04:25:50;2.50;99.90
37460;DHT22;23318;50.966;5.284;2023-04-03T04:28:16;2.60;99.90
37460;DHT22;23318;50.966;5.284;2023-04-03T04:30:41;2.60;99.90
37460;DHT22;23318;50.966;5.284;2023-04-03T04:33:07;2.50;99.90
37460;DHT22;23318;50.966;5.284;2023-04-03T04:35:34;2.30;99.90
37460;DHT22;23318;50.966;5.284;2023-04-03T04:37:59;2.30;99.90
37460;DHT22;23318;50.966;5.284;2023-04-03T04:40:26;2.10;99.90
37460;DHT22;23318;50.966;5.284;2023-04-03T04:42:52;2.10;99.90
37460;DHT22;23318;50.966;5.284;2023-04-03T04:45:18;2.20;99.90
37460;DHT22;23318;50.966;5.284;2023-04-03T04:47:43;2.20;99.90
37460;DHT22;23318;50.966;5.284;2023-04-03T04:50:10;2.10;99.90
37460;DHT22;23318;50.966;5.284;2023-04-03T04:52:35;2.10;99.90
37460;DHT22;23318;50.966;5.284;2023-04-03T04:55:01;2.00;99.90
37460;DHT22;23318;50.966;5.284;2023-04-03T04:57:27;1.90;99.90
37460;DHT22;23318;50.966;5.284;2023-04-03T04:59:52;1.90;99.90
37460;DHT22;23318;50.966;5.284;2023-04-03T05:02:18;1.90;99.90
37460;DHT22;23318;50.966;5.284;2023-04-03T05:04:44;2.00;99.90
37460;DHT22;23318;50.966;5.284;2023-04-03T05:07:10;2.00;99.90
37460;DHT22;23318;50.966;5.284;2023-04-03T05:09:36;2.00;99.90
37460;DHT22;23318;50.966;5.284;2023-04-03T05:12:01;1.90;99.90
37460;DHT22;23318;50.966;5.284;2023-04-03T05:14:28;1.90;99.90
37460;DHT22;23318;50.966;5.284;2023-04-03T05:16:54;1.80;99.90
37460;DHT22;23318;50.966;5.284;2023-04-03T05:19:21;1.90;99.90
37460;DHT22;23318;50.966;5.284;2023-04-03T05:21:47;1.90;99.90
37460;DHT22;23318;50.966;5.284;2023-04-03T05:24:13;1.90;99.90
37460;DHT22;23318;50.966;5.284;2023-04-03T05:26:39;1.80;99.90
37460;DHT22;23318;50.966;5.284;2023-04-03T05:29:05;1.80;99.90
37460;DHT22;23318;50.966;5.284;2023-04-03T05:31:30;1.90;99.90
37460;DHT22;23318;50.966;5.284;2023-04-03T05:33:56;1.90;99.90
37460;DHT22;23318;50.966;5.284;2023-04-03T05:36:22;2.00;99.90
37460;DHT22;23318;50.966;5.284;2023-04-03T05:38:48;2.00;99.90
37460;DHT22;23318;50.966;5.284;2023-04-03T05:41:15;2.00;99.90
37460;DHT22;23318;50.966;5.284;2023-04-03T05:43:41;2.10;99.90
37460;DHT22;23318;50.966;5.284;2023-04-03T05:46:17;2.10;99.90
37460;DHT22;23318;50.966;5.284;2023-04-03T05:48:44;2.10;99.90
37460;DHT22;23318;50.966;5.284;2023-04-03T05:51:19;2.20;99.90
37460;DHT22;23318;50.966;5.284;2023-04-03T05:53:45;2.20;99.90
37460;DHT22;23318;50.966;5.284;2023-04-03T05:56:12;2.20;99.90
37460;DHT22;23318;50.966;5.284;2023-04-03T05:58:37;2.20;99.90
37460;DHT22;23318;50.966;5.284;2023-04-03T06:01:03;2.20;99.90
37460;DHT22;23318;50.966;5.284;2023-04-03T06:03:30;2.20;99.90
37460;DHT22;23318;50.966;5.284;2023-04-03T06:05:56;2.20;99.90
37460;DHT22;23318;50.966;5.284;2023-04-03T06:08:22;2.20;99.90
37460;DHT22;23318;50.966;5.284;2023-04-03T06:10:49;2.30;99.90
37460;DHT22;23318;50.966;5.284;2023-04-03T06:13:15;2.30;99.90
37460;DHT22;23318;50.966;5.284;2023-04-03T06:15:41;2.40;99.90
37460;DHT22;23318;50.966;5.284;2023-04-03T06:18:07;2.50;99.90
37460;DHT22;23318;50.966;5.284;2023-04-03T06:20:33;2.50;99.90
37460;DHT22;23318;50.966;5.284;2023-04-03T06:22:59;2.60;99.90
37460;DHT22;23318;50.966;5.284;2023-04-03T06:25:25;2.50;99.90
37460;DHT22;23318;50.966;5.284;2023-04-03T06:27:52;2.60;99.90
37460;DHT22;23318;50.966;5.284;2023-04-03T06:30:17;2.70;99.90
37460;DHT22;23318;50.966;5.284;2023-04-03T06:32:43;2.80;99.90
37460;DHT22;23318;50.966;5.284;2023-04-03T06:35:09;2.70;99.90
37460;DHT22;23318;50.966;5.284;2023-04-03T06:37:35;2.90;99.90
37460;DHT22;23318;50.966;5.284;2023-04-03T06:40:00;3.00;99.90
37460;DHT22;23318;50.966;5.284;2023-04-03T06:42:27;3.00;99.90
37460;DHT22;23318;50.966;5.284;2023-04-03T06:44:52;3.10;99.90
37460;DHT22;23318;50.966;5.284;2023-04-03T06:47:18;3.10;99.90
37460;DHT22;23318;50.966;5.284;2023-04-03T06:49:44;3.20;99.90
37460;DHT22;23318;50.966;5.284;2023-04-03T06:52:10;3.40;99.90
37460;DHT22;23318;50.966;5.284;2023-04-03T06:54:38;3.50;99.90
37460;DHT22;23318;50.966;5.284;2023-04-03T06:57:04;3.50;99.90
37460;DHT22;23318;50.966;5.284;2023-04-03T06:59:29;3.50;99.90
37460;DHT22;23318;50.966;5.284;2023-04-03T07:01:55;3.60;99.90
37460;DHT22;23318;50.966;5.284;2023-04-03T07:04:21;3.60;99.90
37460;DHT22;23318;50.966;5.284;2023-04-03T07:06:47;3.70;99.90
37460;DHT22;23318;50.966;5.284;2023-04-03T07:09:14;3.80;99.90
37460;DHT22;23318;50.966;5.284;2023-04-03T07:11:40;3.80;99.90
37460;DHT22;23318;50.966;5.284;2023-04-03T07:14:06;3.90;99.90
37460;DHT22;23318;50.966;5.284;2023-04-03T07:16:34;4.00;99.90
37460;DHT22;23318;50.966;5.284;2023-04-03T07:19:00;4.10;99.90
37460;DHT22;23318;50.966;5.284;2023-04-03T07:21:27;4.20;99.90
37460;DHT22;23318;50.966;5.284;2023-04-03T07:23:53;4.20;99.90
37460;DHT22;23318;50.966;5.284;2023-04-03T07:26:19;4.30;99.90
37460;DHT22;23318;50.966;5.284;2023-04-03T07:28:46;4.40;99.90
37460;DHT22;23318;50.966;5.284;2023-04-03T07:31:12;4.50;99.90
37460;DHT22;23318;50.966;5.284;2023-04-03T07:33:39;4.60;99.90
37460;DHT22;23318;50.966;5.284;2023-04-03T07:36:07;4.70;99.90
37460;DHT22;23318;50.966;5.284;2023-04-03T07:38:34;4.90;99.90
37460;DHT22;23318;50.966;5.284;2023-04-03T07:41:00;4.90;99.90
37460;DHT22;23318;50.966;5.284;2023-04-03T07:43:26;5.00;99.90
37460;DHT22;23318;50.966;5.284;2023-04-03T07:45:53;5.00;99.90
37460;DHT22;23318;50.966;5.284;2023-04-03T07:48:24;4.90;99.90
37460;DHT22;23318;50.966;5.284;2023-04-03T07:50:50;5.00;99.90
37460;DHT22;23318;50.966;5.284;2023-04-03T07:53:17;5.30;99.90
37460;DHT22;23318;50.966;5.284;2023-04-03T07:55:45;5.50;99.90
37460;DHT22;23318;50.966;5.284;2023-04-03T07:58:13;5.60;99.90
37460;DHT22;23318;50.966;5.284;2023-04-03T08:00:40;5.60;99.90
37460;DHT22;23318;50.966;5.284;2023-04-03T08:03:06;5.80;99.90
37460;DHT22;23318;50.966;5.284;2023-04-03T08:05:39;5.70;99.90
37460;DHT22;23318;50.966;5.284;2023-04-03T08:08:06;5.70;99.90
37460;DHT22;23318;50.966;5.284;2023-04-03T08:10:31;5.70;99.90
37460;DHT22;23318;50.966;5.284;2023-04-03T08:12:57;5.80;99.90
37460;DHT22;23318;50.966;5.284;2023-04-03T08:15:23;5.90;99.90
37460;DHT22;23318;50.966;5.284;2023-04-03T08:17:49;6.10;99.90
37460;DHT22;23318;50.966;5.284;2023-04-03T08:20:14;6.20;99.90
37460;DHT22;23318;50.966;5.284;2023-04-03T08:22:40;6.20;99.90
37460;DHT22;23318;50.966;5.284;2023-04-03T08:25:06;6.30;99.90
37460;DHT22;23318;50.966;5.284;2023-04-03T08:27:32;6.40;99.90
37460;DHT22;23318;50.966;5.284;2023-04-03T08:29:58;6.40;99.90
37460;DHT22;23318;50.966;5.284;2023-04-03T08:32:24;6.40;99.90
37460;DHT22;23318;50.966;5.284;2023-04-03T08:34:49;6.30;99.90
37460;DHT22;23318;50.966;5.284;2023-04-03T08:37:15;6.30;99.90
37460;DHT22;23318;50.966;5.284;2023-04-03T08:39:42;6.30;99.90
37460;DHT22;23318;50.966;5.284;2023-04-03T08:45:28;6.50;99.90
37460;DHT22;23318;50.966;5.284;2023-04-03T08:48:11;6.60;99.90
37460;DHT22;23318;50.966;5.284;2023-04-03T08:50:43;6.70;99.90
37460;DHT22;23318;50.966;5.284;2023-04-03T08:53:25;6.90;99.90
37460;DHT22;23318;50.966;5.284;2023-04-03T08:55:55;7.00;99.90
37460;DHT22;23318;50.966;5.284;2023-04-03T08:58:30;7.10;99.90
37460;DHT22;23318;50.966;5.284;2023-04-03T09:01:21;7.10;99.90
37460;DHT22;23318;50.966;5.284;2023-04-03T09:03:48;7.20;99.90
37460;DHT22;23318;50.966;5.284;2023-04-03T09:06:21;7.20;99.90
37460;DHT22;23318;50.966;5.284;2023-04-03T09:11:38;7.10;99.90
37460;DHT22;23318;50.966;5.284;2023-04-03T09:17:00;7.40;99.90
37460;DHT22;23318;50.966;5.284;2023-04-03T09:24:39;7.90;99.90
37460;DHT22;23318;50.966;5.284;2023-04-03T09:27:08;8.00;99.90
37460;DHT22;23318;50.966;5.284;2023-04-03T09:29:42;8.10;99.50
37460;DHT22;23318;50.966;5.284;2023-04-03T09:34:51;8.10;99.70
37460;DHT22;23318;50.966;5.284;2023-04-03T09:37:40;8.10;98.90
37460;DHT22;23318;50.966;5.284;2023-04-03T09:42:53;8.20;98.20
37460;DHT22;23318;50.966;5.284;2023-04-03T09:48:16;8.30;99.00
37460;DHT22;23318;50.966;5.284;2023-04-03T09:50:56;8.40;99.30
37460;DHT22;23318;50.966;5.284;2023-04-03T09:56:00;8.30;99.20
37460;DHT22;23318;50.966;5.284;2023-04-03T09:58:37;8.20;99.50
37460;DHT22;23318;50.966;5.284;2023-04-03T10:01:03;8.30;99.30
37460;DHT22;23318;50.966;5.284;2023-04-03T10:03:33;8.30;99.30
37460;DHT22;23318;50.966;5.284;2023-04-03T10:06:01;8.30;98.90
37460;DHT22;23318;50.966;5.284;2023-04-03T10:08:33;8.40;98.20
37460;DHT22;23318;50.966;5.284;2023-04-03T10:11:17;8.70;98.50
37460;DHT22;23318;50.966;5.284;2023-04-03T10:13:57;8.80;97.90
37460;DHT22;23318;50.966;5.284;2023-04-03T10:16:34;9.00;96.40
37460;DHT22;23318;50.966;5.284;2023-04-03T10:19:05;9.00;95.90
37460;DHT22;23318;50.966;5.284;2023-04-03T10:24:39;9.20;94.90
37460;DHT22;23318;50.966;5.284;2023-04-03T10:27:29;9.10;94.90
37460;DHT22;23318;50.966;5.284;2023-04-03T10:30:04;9.10;94.90
37460;DHT22;23318;50.966;5.284;2023-04-03T10:32:55;9.30;94.80
37460;DHT22;23318;50.966;5.284;2023-04-03T10:41:29;10.00;94.20
37460;DHT22;23318;50.966;5.284;2023-04-03T10:44:09;11.90;92.10
37460;DHT22;23318;50.966;5.284;2023-04-03T10:46:47;12.30;90.80
37460;DHT22;23318;50.966;5.284;2023-04-03T10:57:18;13.70;85.00
37460;DHT22;23318;50.966;5.284;2023-04-03T11:02:14;14.00;82.20
37460;DHT22;23318;50.966;5.284;2023-04-03T11:04:43;13.90;81.40
37460;DHT22;23318;50.966;5.284;2023-04-03T11:07:25;13.70;75.90
37460;DHT22;23318;50.966;5.284;2023-04-03T11:09:58;13.50;74.30
37460;DHT22;23318;50.966;5.284;2023-04-03T11:12:36;13.10;72.10
37460;DHT22;23318;50.966;5.284;2023-04-03T11:15:04;13.30;73.50
37460;DHT22;23318;50.966;5.284;2023-04-03T11:17:41;13.40;71.90
37460;DHT22;23318;50.966;5.284;2023-04-03T11:20:25;13.70;70.70
37460;DHT22;23318;50.966;5.284;2023-04-03T11:25:41;13.70;67.90
37460;DHT22;23318;50.966;5.284;2023-04-03T11:28:13;14.00;67.50
37460;DHT22;23318;50.966;5.284;2023-04-03T11:31:08;14.60;67.70
37460;DHT22;23318;50.966;5.284;2023-04-03T11:33:55;14.80;66.70
37460;DHT22;23318;50.966;5.284;2023-04-03T11:36:29;14.50;65.40
37460;DHT22;23318;50.966;5.284;2023-04-03T11:38:58;14.80;67.50
37460;DHT22;23318;50.966;5.284;2023-04-03T11:41:28;15.60;68.10
37460;DHT22;23318;50.966;5.284;2023-04-03T11:43:59;15.60;66.50
37460;DHT22;23318;50.966;5.284;2023-04-03T11:46:54;15.20;63.30
37460;DHT22;23318;50.966;5.284;2023-04-03T12:16:08;17.20;60.30
37460;DHT22;23318;50.966;5.284;2023-04-03T12:24:03;17.80;60.70
37460;DHT22;23318;50.966;5.284;2023-04-03T12:48:46;17.60;60.90
37460;DHT22;23318;50.966;5.284;2023-04-03T12:51:39;17.60;60.80
37460;DHT22;23318;50.966;5.284;2023-04-03T12:56:50;17.60;57.40
37460;DHT22;23318;50.966;5.284;2023-04-03T12:59:22;17.10;58.10
37460;DHT22;23318;50.966;5.284;2023-04-03T13:01:56;17.80;59.50
37460;DHT22;23318;50.966;5.284;2023-04-03T13:04:22;18.70;58.40
37460;DHT22;23318;50.966;5.284;2023-04-03T13:06:49;17.90;57.00
37460;DHT22;23318;50.966;5.284;2023-04-03T13:11:49;18.60;57.30
37460;DHT22;23318;50.966;5.284;2023-04-03T13:14:18;18.50;57.80
37460;DHT22;23318;50.966;5.284;2023-04-03T13:17:14;18.60;57.30
37460;DHT22;23318;50.966;5.284;2023-04-03T13:19:40;18.60;57.20
37460;DHT22;23318;50.966;5.284;2023-04-03T13:24:52;17.60;57.30
37460;DHT22;23318;50.966;5.284;2023-04-03T13:27:19;18.80;57.80
37460;DHT22;23318;50.966;5.284;2023-04-03T13:29:53;18.30;57.90
37460;DHT22;23318;50.966;5.284;2023-04-03T13:32:23;19.20;59.30
37460;DHT22;23318;50.966;5.284;2023-04-03T13:34:50;21.00;56.80
37460;DHT22;23318;50.966;5.284;2023-04-03T13:37:33;20.90;55.50
37460;DHT22;23318;50.966;5.284;2023-04-03T13:42:27;20.70;55.00
37460;DHT22;23318;50.966;5.284;2023-04-03T13:47:47;19.20;58.00
37460;DHT22;23318;50.966;5.284;2023-04-03T13:50:21;18.60;57.60
37460;DHT22;23318;50.966;5.284;2023-04-03T13:53:11;19.30;58.20
37460;DHT22;23318;50.966;5.284;2023-04-03T13:55:56;20.50;55.90
37460;DHT22;23318;50.966;5.284;2023-04-03T13:58:27;20.80;56.30
37460;DHT22;23318;50.966;5.284;2023-04-03T14:03:33;20.10;55.70
37460;DHT22;23318;50.966;5.284;2023-04-03T14:05:59;20.30;55.70
37460;DHT22;23318;50.966;5.284;2023-04-03T14:08:27;20.70;55.10
37460;DHT22;23318;50.966;5.284;2023-04-03T14:10:53;21.40;54.70
37460;DHT22;23318;50.966;5.284;2023-04-03T14:13:19;22.90;54.00
37460;DHT22;23318;50.966;5.284;2023-04-03T14:15:47;23.90;51.90
37460;DHT22;23318;50.966;5.284;2023-04-03T14:18:16;22.40;52.40
37460;DHT22;23318;50.966;5.284;2023-04-03T14:20:46;21.40;53.00
37460;DHT22;23318;50.966;5.284;2023-04-03T14:23:12;21.20;52.50
37460;DHT22;23318;50.966;5.284;2023-04-03T14:25:39;21.30;53.10
37460;DHT22;23318;50.966;5.284;2023-04-03T14:28:20;21.00;51.70
37460;DHT22;23318;50.966;5.284;2023-04-03T14:30:49;20.40;53.00
37460;DHT22;23318;50.966;5.284;2023-04-03T14:33:19;20.60;54.00
37460;DHT22;23318;50.966;5.284;2023-04-03T14:35:46;19.50;52.90
37460;DHT22;23318;50.966;5.284;2023-04-03T14:38:23;19.10;54.10
37460;DHT22;23318;50.966;5.284;2023-04-03T14:40:49;20.20;54.00
37460;DHT22;23318;50.966;5.284;2023-04-03T14:43:15;20.10;54.80
37460;DHT22;23318;50.966;5.284;2023-04-03T14:45:41;20.10;55.20
37460;DHT22;23318;50.966;5.284;2023-04-03T14:48:15;20.20;54.50
37460;DHT22;23318;50.966;5.284;2023-04-03T14:50:42;20.50;54.20
37460;DHT22;23318;50.966;5.284;2023-04-03T14:53:09;19.80;55.80
37460;DHT22;23318;50.966;5.284;2023-04-03T14:55:35;19.10;55.70
37460;DHT22;23318;50.966;5.284;2023-04-03T14:58:01;19.60;54.80
37460;DHT22;23318;50.966;5.284;2023-04-03T15:00:27;19.80;54.20
37460;DHT22;23318;50.966;5.284;2023-04-03T15:02:53;19.70;54.20
37460;DHT22;23318;50.966;5.284;2023-04-03T15:05:18;20.30;56.10
37460;DHT22;23318;50.966;5.284;2023-04-03T15:07:52;19.90;54.40
37460;DHT22;23318;50.966;5.284;2023-04-03T15:10:29;19.60;55.20
37460;DHT22;23318;50.966;5.284;2023-04-03T15:12:56;18.90;56.50
37460;DHT22;23318;50.966;5.284;2023-04-03T15:15:22;19.80;55.50
37460;DHT22;23318;50.966;5.284;2023-04-03T15:17:54;20.10;55.00
37460;DHT22;23318;50.966;5.284;2023-04-03T15:20:23;19.90;54.70
37460;DHT22;23318;50.966;5.284;2023-04-03T15:22:49;19.20;53.30
37460;DHT22;23318;50.966;5.284;2023-04-03T15:25:15;18.70;54.40
37460;DHT22;23318;50.966;5.284;2023-04-03T15:27:41;18.60;55.30
37460;DHT22;23318;50.966;5.284;2023-04-03T15:30:13;19.00;55.10
37460;DHT22;23318;50.966;5.284;2023-04-03T15:32:40;19.80;54.60
37460;DHT22;23318;50.966;5.284;2023-04-03T15:35:06;19.80;55.30
37460;DHT22;23318;50.966;5.284;2023-04-03T15:37:31;18.70;53.90
37460;DHT22;23318;50.966;5.284;2023-04-03T15:39:57;17.90;54.50
37460;DHT22;23318;50.966;5.284;2023-04-03T15:42:23;18.30;55.70
37460;DHT22;23318;50.966;5.284;2023-04-03T15:44:48;19.50;54.40
37460;DHT22;23318;50.966;5.284;2023-04-03T15:47:14;19.60;54.40
37460;DHT22;23318;50.966;5.284;2023-04-03T15:49:40;19.00;53.60
37460;DHT22;23318;50.966;5.284;2023-04-03T15:52:06;20.00;54.80
37460;DHT22;23318;50.966;5.284;2023-04-03T15:54:32;19.90;53.70
37460;DHT22;23318;50.966;5.284;2023-04-03T15:56:58;19.70;52.60
37460;DHT22;23318;50.966;5.284;2023-04-03T15:59:23;19.00;54.00
37460;DHT22;23318;50.966;5.284;2023-04-03T16:01:50;19.10;53.60
37460;DHT22;23318;50.966;5.284;2023-04-03T16:04:17;18.50;54.00
37460;DHT22;23318;50.966;5.284;2023-04-03T16:06:43;18.50;54.60
37460;DHT22;23318;50.966;5.284;2023-04-03T16:09:09;18.90;55.40
37460;DHT22;23318;50.966;5.284;2023-04-03T16:11:35;19.30;54.10
37460;DHT22;23318;50.966;5.284;2023-04-03T16:14:04;19.20;53.80
37460;DHT22;23318;50.966;5.284;2023-04-03T16:16:30;18.90;53.60
37460;DHT22;23318;50.966;5.284;2023-04-03T16:18:56;19.20;53.90
37460;DHT22;23318;50.966;5.284;2023-04-03T16:21:22;18.70;54.70
37460;DHT22;23318;50.966;5.284;2023-04-03T16:23:48;18.90;54.90
37460;DHT22;23318;50.966;5.284;2023-04-03T16:26:14;19.30;52.90
37460;DHT22;23318;50.966;5.284;2023-04-03T16:28:40;18.70;53.20
37460;DHT22;23318;50.966;5.284;2023-04-03T16:31:07;18.80;54.20
37460;DHT22;23318;50.966;5.284;2023-04-03T16:33:33;19.00;52.50
37460;DHT22;23318;50.966;5.284;2023-04-03T16:35:59;18.80;54.30
37460;DHT22;23318;50.966;5.284;2023-04-03T16:38:25;18.80;53.30
37460;DHT22;23318;50.966;5.284;2023-04-03T16:40:51;18.90;54.10
37460;DHT22;23318;50.966;5.284;2023-04-03T16:43:18;19.00;55.10
37460;DHT22;23318;50.966;5.284;2023-04-03T16:45:44;18.60;53.30
37460;DHT22;23318;50.966;5.284;2023-04-03T16:48:10;18.40;54.30
37460;DHT22;23318;50.966;5.284;2023-04-03T16:50:36;17.70;53.60
37460;DHT22;23318;50.966;5.284;2023-04-03T16:53:01;17.70;55.20
37460;DHT22;23318;50.966;5.284;2023-04-03T16:55:28;17.20;55.10
37460;DHT22;23318;50.966;5.284;2023-04-03T16:57:54;17.00;56.30
37460;DHT22;23318;50.966;5.284;2023-04-03T17:00:20;16.20;55.70
37460;DHT22;23318;50.966;5.284;2023-04-03T17:02:46;16.00;57.60
37460;DHT22;23318;50.966;5.284;2023-04-03T17:05:12;15.90;57.20
37460;DHT22;23318;50.966;5.284;2023-04-03T17:07:37;15.90;57.70
37460;DHT22;23318;50.966;5.284;2023-04-03T17:10:04;15.70;57.30
37460;DHT22;23318;50.966;5.284;2023-04-03T17:12:29;15.20;57.90
37460;DHT22;23318;50.966;5.284;2023-04-03T17:14:55;15.00;58.90
37460;DHT22;23318;50.966;5.284;2023-04-03T17:17:23;14.70;59.50
37460;DHT22;23318;50.966;5.284;2023-04-03T17:19:50;14.40;59.40
37460;DHT22;23318;50.966;5.284;2023-04-03T17:22:16;14.50;59.60
37460;DHT22;23318;50.966;5.284;2023-04-03T17:24:43;13.90;59.60
37460;DHT22;23318;50.966;5.284;2023-04-03T17:27:09;13.40;60.10
37460;DHT22;23318;50.966;5.284;2023-04-03T17:29:34;12.70;60.30
37460;DHT22;23318;50.966;5.284;2023-04-03T17:32:00;12.60;61.40
37460;DHT22;23318;50.966;5.284;2023-04-03T17:34:26;12.90;61.60
37460;DHT22;23318;50.966;5.284;2023-04-03T17:36:52;12.80;60.90
37460;DHT22;23318;50.966;5.284;2023-04-03T17:39:17;12.70;60.90
37460;DHT22;23318;50.966;5.284;2023-04-03T17:41:43;12.40;61.20
37460;DHT22;23318;50.966;5.284;2023-04-03T17:44:10;12.30;61.30
37460;DHT22;23318;50.966;5.284;2023-04-03T17:46:36;12.30;61.90
37460;DHT22;23318;50.966;5.284;2023-04-03T17:49:02;12.00;61.40
37460;DHT22;23318;50.966;5.284;2023-04-03T17:51:29;11.50;62.50
37460;DHT22;23318;50.966;5.284;2023-04-03T17:53:56;11.10;62.60
37460;DHT22;23318;50.966;5.284;2023-04-03T17:56:24;11.00;63.50